Wolf Lake, Illinois
Current Conditions -  °F | °C
As of 3:53 PM on Sunday 25 Jan 2015 (Local Time) from KCGI Reporting Station
Overcast Overcast  
Wind Chill: 42°   Ceiling: 4200
Heat Index: 46°   Visibility: 10mi
Dew Point: 44°   Wind: 7mph
Humidity: 93%   Direction: 240°WSW
Pressure: 29.65"   Gusts: NA
Location:  37.5°N, 89.44°W
Report Text: KCGI 252153Z AUTO 24006KT 10SM FEW029 BKN042 OVC050 08/07 A2965 RMK AO2 RAE38 SLP040 P0002 T00780067 TSNO
Loading
Personal Weather Stations






























Interactive Weather Map New forecast layout! Learn more

10-Day Weather Forecast

Advertisements
Track Severe Weather on mobile